createdAt,value
2022-08-03T00:01:29.351Z,15.90
2022-08-03T00:08:32.221Z,16.70
2022-08-03T00:15:39.667Z,16.40
2022-08-03T00:22:41.646Z,16.80
2022-08-03T00:29:57.604Z,17.30
2022-08-03T00:37:03.473Z,17.60
2022-08-03T00:44:15.915Z,17.80
2022-08-03T00:51:19.176Z,17.40
2022-08-03T00:58:22.703Z,17.80
2022-08-03T01:05:08.400Z,17.70
2022-08-03T01:12:04.211Z,17.10
2022-08-03T01:18:21.103Z,16.00
2022-08-03T01:24:55.680Z,18.00
2022-08-03T01:31:09.861Z,16.60
2022-08-03T01:37:49.108Z,18.30
2022-08-03T01:44:28.057Z,19.00
2022-08-03T01:50:38.734Z,20.70
2022-08-03T01:56:49.159Z,19.40
2022-08-03T02:03:09.192Z,19.90
2022-08-03T02:09:36.755Z,18.70
2022-08-03T02:15:53.372Z,18.40
2022-08-03T02:22:13.621Z,18.60
2022-08-03T02:28:50.901Z,17.20
2022-08-03T02:34:58.886Z,18.80
2022-08-03T02:41:23.246Z,21.10
2022-08-03T02:47:53.329Z,18.80
2022-08-03T02:54:14.850Z,18.30
2022-08-03T03:00:27.418Z,19.00
2022-08-03T03:06:33.468Z,18.80
2022-08-03T03:12:47.450Z,19.40
2022-08-03T03:18:58.018Z,20.60
2022-08-03T03:25:15.574Z,21.90
2022-08-03T03:31:22.865Z,18.50
2022-08-03T03:37:19.413Z,16.30
2022-08-03T03:43:33.387Z,19.30
2022-08-03T03:49:43.961Z,18.30
2022-08-03T03:55:36.867Z,19.70
2022-08-03T04:02:18.473Z,19.80
2022-08-03T04:08:45.825Z,18.00
2022-08-03T04:14:58.670Z,18.00
2022-08-03T04:21:12.022Z,19.70
2022-08-03T04:27:39.956Z,17.30
2022-08-03T04:33:51.298Z,21.30
2022-08-03T04:39:47.567Z,20.10
2022-08-03T04:46:13.719Z,20.50
2022-08-03T04:52:21.632Z,21.20
2022-08-03T04:58:29.197Z,23.80
2022-08-03T05:04:38.200Z,20.50
2022-08-03T05:10:50.398Z,19.00
2022-08-03T05:16:50.963Z,20.50
2022-08-03T05:23:08.927Z,21.50
2022-08-03T05:29:27.820Z,21.80
2022-08-03T05:35:57.187Z,22.00
2022-08-03T05:41:53.438Z,24.40
2022-08-03T05:48:56.699Z,29.80
2022-08-03T05:56:03.674Z,30.40
2022-08-03T06:02:38.000Z,27.00
2022-08-03T06:09:20.714Z,26.90
2022-08-03T06:16:16.474Z,26.60
2022-08-03T06:23:18.748Z,22.90
2022-08-03T06:30:21.839Z,26.50
2022-08-03T06:36:42.633Z,26.10
2022-08-03T06:42:22.990Z,27.60
2022-08-03T06:48:05.816Z,26.00
2022-08-03T06:53:27.808Z,25.30
2022-08-03T06:59:09.800Z,25.40
2022-08-03T07:04:57.244Z,26.20
2022-08-03T07:10:21.973Z,22.50
2022-08-03T07:16:00.548Z,23.70
2022-08-03T07:27:29.714Z,20.40
2022-08-03T07:33:08.356Z,21.00
2022-08-03T07:38:39.314Z,18.50
2022-08-03T07:44:18.256Z,16.40
2022-08-03T07:49:52.527Z,17.90
2022-08-03T07:55:36.349Z,16.80
2022-08-03T08:01:14.881Z,15.50
2022-08-03T08:07:11.721Z,14.30
2022-08-03T08:18:20.815Z,13.50
2022-08-03T08:23:53.732Z,12.90
2022-08-03T08:29:32.123Z,11.30
2022-08-03T08:36:12.012Z,12.30
2022-08-03T08:42:00.151Z,11.00
2022-08-03T08:48:27.246Z,11.30
2022-08-03T08:54:15.235Z,10.80
2022-08-03T08:59:56.995Z,10.10
2022-08-03T09:06:21.187Z,9.60
2022-08-03T09:12:42.470Z,10.20
2022-08-03T09:18:32.487Z,12.10
2022-08-03T09:24:41.623Z,9.50
2022-08-03T09:30:33.471Z,10.80
2022-08-03T09:37:01.536Z,9.90
2022-08-03T09:42:27.922Z,10.40
2022-08-03T09:49:02.694Z,11.90
2022-08-03T09:54:56.099Z,14.40
2022-08-03T10:00:22.648Z,11.00
2022-08-03T10:05:59.752Z,8.70
2022-08-03T10:11:42.660Z,7.90
2022-08-03T10:17:10.509Z,9.00
2022-08-03T10:22:50.304Z,9.10
2022-08-03T10:28:35.726Z,8.50
2022-08-03T10:34:24.322Z,8.80
2022-08-03T10:39:56.674Z,10.20
2022-08-03T10:45:40.050Z,8.70
2022-08-03T10:51:07.226Z,7.40
2022-08-03T10:56:55.521Z,8.10
2022-08-03T11:02:23.200Z,6.90
2022-08-03T11:07:45.514Z,8.50
2022-08-03T11:13:33.906Z,7.80
2022-08-03T11:19:16.857Z,7.70
2022-08-03T11:24:47.320Z,7.40
2022-08-03T11:30:30.023Z,7.60
2022-08-03T11:36:32.419Z,8.00
2022-08-03T11:41:57.730Z,7.20
2022-08-03T11:47:22.860Z,6.80
2022-08-03T11:52:50.194Z,7.10
2022-08-03T11:59:10.730Z,7.80
2022-08-03T12:04:08.198Z,6.30
2022-08-03T12:09:30.059Z,7.30
2022-08-03T12:14:58.985Z,6.00
2022-08-03T12:20:31.412Z,6.00
2022-08-03T12:26:10.807Z,6.50
2022-08-03T12:31:36.422Z,6.20
2022-08-03T12:37:45.926Z,6.20
2022-08-03T12:44:00.595Z,6.40
2022-08-03T12:50:43.631Z,6.20
2022-08-03T12:56:10.446Z,6.40
2022-08-03T13:01:55.116Z,5.60
2022-08-03T13:07:31.692Z,6.30
2022-08-03T13:12:53.865Z,6.50
2022-08-03T13:18:19.199Z,7.60
2022-08-03T13:23:42.821Z,6.10
2022-08-03T13:29:07.991Z,6.80
2022-08-03T13:34:46.269Z,6.80
2022-08-03T13:40:14.747Z,6.90
2022-08-03T13:46:15.422Z,7.10
2022-08-03T13:51:42.841Z,6.90
2022-08-03T13:58:12.472Z,7.70
2022-08-03T14:03:35.239Z,8.10
2022-08-03T14:09:00.564Z,8.20
2022-08-03T14:14:23.249Z,7.70
2022-08-03T14:19:52.745Z,8.30
2022-08-03T14:25:16.848Z,7.30
2022-08-03T14:30:41.851Z,7.70
2022-08-03T14:36:05.277Z,7.60
2022-08-03T14:41:28.040Z,7.60
2022-08-03T14:46:50.757Z,7.70
2022-08-03T14:52:12.977Z,7.40
2022-08-03T14:57:35.322Z,6.90
2022-08-03T15:02:58.423Z,8.10
2022-08-03T15:08:26.839Z,8.00
2022-08-03T15:13:51.562Z,7.50
2022-08-03T15:20:02.036Z,8.60
2022-08-03T15:24:56.466Z,8.00
2022-08-03T15:30:18.797Z,8.80
2022-08-03T15:35:41.763Z,8.50
2022-08-03T15:41:05.729Z,7.50
2022-08-03T15:46:36.112Z,7.80
2022-08-03T15:51:58.315Z,8.50
2022-08-03T15:57:21.666Z,7.60
2022-08-03T16:02:46.283Z,7.60
2022-08-03T16:08:18.094Z,8.10
2022-08-03T16:14:11.960Z,8.00
2022-08-03T16:19:24.633Z,8.20
2022-08-03T16:24:46.965Z,8.20
2022-08-03T16:30:11.996Z,8.10
2022-08-03T16:35:34.050Z,8.10
2022-08-03T16:40:56.578Z,8.90
2022-08-03T16:46:21.534Z,7.70
2022-08-03T16:52:26.087Z,8.30
2022-08-03T16:57:58.440Z,8.80
2022-08-03T17:03:24.346Z,9.40
2022-08-03T17:08:55.162Z,8.70
2022-08-03T17:14:22.830Z,9.60
2022-08-03T17:19:57.723Z,9.00
2022-08-03T17:26:13.680Z,9.70
2022-08-03T17:32:10.123Z,11.30
2022-08-03T17:37:57.454Z,11.60
2022-08-03T17:44:14.474Z,10.20
2022-08-03T17:48:59.517Z,14.90
2022-08-03T17:54:35.053Z,11.60
2022-08-03T18:00:42.701Z,10.90
2022-08-03T18:06:11.789Z,11.80
2022-08-03T18:11:45.848Z,11.50
2022-08-03T18:17:24.516Z,11.70
2022-08-03T18:23:36.213Z,14.80
2022-08-03T18:30:16.286Z,12.60
2022-08-03T18:36:41.639Z,12.70
2022-08-03T18:43:47.644Z,13.80
2022-08-03T18:51:28.595Z,13.40
2022-08-03T18:58:15.806Z,19.20
2022-08-03T19:05:19.719Z,18.90
2022-08-03T19:12:28.195Z,18.00
2022-08-03T19:19:26.934Z,17.30
2022-08-03T19:33:57.506Z,20.20
2022-08-03T19:40:51.117Z,17.70
2022-08-03T19:47:27.659Z,20.20
2022-08-03T19:54:14.584Z,20.00
2022-08-03T20:00:50.545Z,17.90
2022-08-03T20:07:22.622Z,20.70
2022-08-03T20:14:20.751Z,20.80
2022-08-03T20:21:18.643Z,20.40
2022-08-03T20:28:26.826Z,21.40
2022-08-03T20:34:53.229Z,22.20
2022-08-03T20:41:59.312Z,22.20
2022-08-03T20:48:54.770Z,20.00
2022-08-03T21:03:03.642Z,20.60
2022-08-03T21:10:09.962Z,18.70
2022-08-03T21:13:10.601Z,17.10
2022-08-03T21:13:12.190Z,19.70
2022-08-03T21:16:54.292Z,18.30
2022-08-03T21:23:40.258Z,20.10
2022-08-03T21:30:51.710Z,19.30
2022-08-03T21:37:33.517Z,19.50
2022-08-03T21:44:08.846Z,20.10
2022-08-03T21:51:11.869Z,20.50
2022-08-03T21:57:32.273Z,19.40
2022-08-03T22:04:55.635Z,19.30
2022-08-03T22:11:47.142Z,19.60
2022-08-03T22:18:41.369Z,21.00
2022-08-03T22:25:31.179Z,30.50
2022-08-03T22:32:26.800Z,18.40
2022-08-03T22:39:28.574Z,18.10
2022-08-03T22:46:15.675Z,17.80
2022-08-03T22:53:21.632Z,19.70
2022-08-03T23:00:24.761Z,17.60
2022-08-03T23:07:27.656Z,16.80
2022-08-03T23:14:22.685Z,16.20
2022-08-03T23:21:53.644Z,16.40
2022-08-03T23:28:48.954Z,17.90
2022-08-03T23:36:20.133Z,17.90
2022-08-03T23:43:15.518Z,18.10
2022-08-03T23:49:55.796Z,17.50
2022-08-03T23:56:27.808Z,17.10
